Share

Springfield, CO

RAWS UTE CANYON CO US (MUCNC2) Elev 4372 ft | 37.06 °N, 102.63 °W | Change Station

Current weather conditions updated 57 minutes ago

Clear
Clear
38 °F
Feels Like 29 °F
N
17
Wind Variable Wind from SSW
Gusts 22.0 mph
Sunrise 6:11 AM
Sunset 7:28 PM
Moon Waning Gibbous

Today is forecast to be Much Warmer than yesterday.

Pressure 30.04 in
Visibility 7.0 miles
Clouds Clear
Windchill 29 °F
Dew Point 36 °F
Humidity 91%
Rainfall 0.06 in
Snow Depth Not available.
UV 0 out of 16
Pollen 8.70 out of 12
Air Quality Not available.
Flu Activity Sporadic
METAR KLAA 180853Z AUTO 20011KT 7SM CLR 06/01 A3008 RMK AO2 SLP173 T00560011 55009

More Conditions Fewer Conditions

Pressure 30.04 in
Visibility 7.0 miles
Clouds Clear
Windchill 29 °F
Dew Point 36 °F
Humidity 91%
Rainfall 0.06 in
Snow Depth Not available.
UV 0 out of 16
Pollen 8.70 out of 12
Air Quality Not available.
Flu Activity Sporadic
METAR KLAA 180853Z AUTO 20011KT 7SM CLR 06/01 A3008 RMK AO2 SLP173 T00560011 55009

More Conditions Fewer Conditions

10-Day Forecast

Almanac

Astronomy

Apr. 18, 2014 Rise Set
Actual Time 6:11 AM MDT 7:28 PM MDT
Civil Twilight 5:44 AM MDT 7:55 PM MDT
Nautical Twilight 5:12 AM MDT 8:27 PM MDT
Astronomical Twilight 4:38 AM MDT 9:01 PM MDT
Moon 11:12 PM MDT 8:38 AM MDT
Length of Visible Light 14h 10m
Length of Day
13h 16m
Tomorrow will be 2m 14s longer.
Waning Gibbous, 89% of the Moon is Illuminated
Today
Waning Gibbous
Apr 22
Last Quarter
Apr 29
New
May 6
First Quarter
May 14
Full

Today's Extremes

State Highs State Lows

Community

  • SUNRISE THROUGH THE TREES.
    SUNRISE THROUGH THE TREES.
  • Dog Wood Blossoms
    Dog Wood Blossoms
  • Morning Light
    Morning Light
  • New Day
    New Day
  • Lake Michigan Sunrise
    Lake Michigan Sunrise

WunderPhotos

Upload Photos

1,702,300 photos uploaded!

WunderBlogs® & News

Nearby

Snow Depth

Station Depth Elevation
Apishapa 6 in 10000 ft
Whiskey Creek 29 in 10220 ft
Culebra #2 32 in 10500 ft
Trinchera 23 in 10860 ft
Ute Creek 35 in 10650 ft

Coastal Water Temperatures

Place Temperature
No Stations Reporting

Earthquake Activity

City Distance Mag. Time & Date
No recent earthquake activity has been reported nearby.
Minimum magnitude displayed is 2.5.

Nearby Weather Stations

Station Location Temp. Windchill Dew Point Humidity Wind Precip. Elev Updated Type
HCN COMANCHE GRASS SPRINGFIELD 6 WSW CO , Springfield, CO 37 °F 37 °F - - North  at  - 0.00 in / hr 4557 ft 3:15 AM MDT MADIS
NonFedAWOS SPRINGFIELD , Springfield, CO 37 °F 28 °F 36 °F 93% South  at  15 mph 0.00 in / hr 4390 ft 2:55 AM MDT MADIS
RAWS UTE CANYON CO, Campo, CO 38 °F 29 °F 36 °F 91% SSW  at  17 mph 0.00 in / hr 4372 ft 2:59 AM MDT MADIS

Show More Stations Show Fewer Stations

What do you think?

We're not finished. Please let us know what you like, what you don't like, and what you are still missing.